Time;durP1;ratioP1;P1;durP2;ratioP2;P2;SDS_P1;SDS_P2;PMS_P1;PMS_P2;Temp;Humidity;BMP_temperature;BMP_pressure;BME280_temperature;BME280_humidity;BME280_pressure;Samples;Min_cycle;Max_cycle;Signal;HPM_P1;HPM_P2
2023/05/26 00:01:06;;;;;;;35.77;6.70;;;;;;;;;;5081011;28;20020;-89
2023/05/26 00:03:32;;;;;;;42.33;6.07;;;;;;;;;;5074115;28;20042;-89
2023/05/26 00:05:57;;;;;;;43.90;6.13;;;;;;;;;;5071264;28;20024;-89
2023/05/26 00:08:22;;;;;;;40.60;7.00;;;;;;;;;;5070863;28;20035;-89
2023/05/26 00:10:48;;;;;;;44.70;7.57;;;;;;;;;;5084315;28;20541;-89
2023/05/26 00:13:13;;;;;;;44.50;7.07;;;;;;;;;;5072424;28;20016;-89
2023/05/26 00:15:38;;;;;;;52.73;7.23;;;;;;;;;;5075230;28;20111;-89
2023/05/26 00:18:05;;;;;;;46.17;7.73;;;;;;;;;;5073155;28;20028;-89
2023/05/26 00:20:30;;;;;;;44.10;7.33;;;;;;;;;;5070371;28;20090;-89
2023/05/26 00:22:56;;;;;;;42.00;6.73;;;;;;;;;;5087445;28;20482;-89
2023/05/26 00:25:22;;;;;;;43.53;6.93;;;;;;;;;;5088058;28;20025;-89
2023/05/26 00:27:47;;;;;;;46.97;8.20;;;;;;;;;;5076474;28;20020;-89
2023/05/26 00:30:12;;;;;;;55.87;7.60;;;;;;;;;;5072711;28;20093;-89
2023/05/26 00:32:38;;;;;;;59.53;8.10;;;;;;;;;;5072549;28;20021;-89
2023/05/26 00:35:03;;;;;;;45.57;8.27;;;;;;;;;;5072857;28;20012;-89
2023/05/26 00:37:29;;;;;;;43.60;7.67;;;;;;;;;;5073413;28;20025;-89
2023/05/26 00:39:54;;;;;;;52.87;7.70;;;;;;;;;;5072601;28;20022;-89
2023/05/26 00:42:19;;;;;;;45.33;7.47;;;;;;;;;;5073672;28;20081;-89
2023/05/26 00:44:44;;;;;;;52.23;7.67;;;;;;;;;;5072520;28;20463;-89
2023/05/26 00:47:10;;;;;;;55.07;8.23;;;;;;;;;;5071305;28;20036;-89
2023/05/26 00:49:35;;;;;;;41.37;7.33;;;;;;;;;;5071073;28;20033;-88
2023/05/26 00:52:01;;;;;;;54.53;9.37;;;;;;;;;;5071787;28;20028;-89
2023/05/26 00:54:26;;;;;;;49.10;7.63;;;;;;;;;;5072184;28;20020;-89
2023/05/26 00:56:54;;;;;;;50.77;7.60;;;;;;;;;;5081910;28;20079;-89
2023/05/26 00:59:20;;;;;;;54.53;8.43;;;;;;;;;;5083687;28;20020;-89
2023/05/26 01:02:04;;;;;;;49.17;8.30;;;;;;;;;;5071496;28;20522;-88
2023/05/26 01:04:29;;;;;;;45.93;7.93;;;;;;;;;;5066012;28;20068;-88
2023/05/26 01:06:55;;;;;;;50.30;7.90;;;;;;;;;;5067008;28;20493;-89
2023/05/26 01:09:21;;;;;;;44.17;8.80;;;;;;;;;;5079064;28;20042;-89
2023/05/26 01:11:54;;;;;;;58.33;7.93;;;;;;;;;;5071575;28;20553;-89
2023/05/26 01:14:27;;;;;;;49.83;8.37;;;;;;;;;;5073109;28;20024;-89
2023/05/26 01:16:54;;;;;;;52.73;8.50;;;;;;;;;;5070589;28;20012;-89
2023/05/26 01:19:34;;;;;;;47.67;8.23;;;;;;;;;;5071913;28;20020;-89
2023/05/26 01:22:09;;;;;;;41.67;7.30;;;;;;;;;;5070029;28;20035;-89
2023/05/26 01:24:39;;;;;;;59.77;9.00;;;;;;;;;;5082106;28;20427;-89
2023/05/26 01:27:17;;;;;;;51.40;9.13;;;;;;;;;;5080093;28;20501;-89
2023/05/26 01:29:42;;;;;;;55.23;8.63;;;;;;;;;;5071716;28;20070;-89
2023/05/26 01:32:09;;;;;;;57.37;8.80;;;;;;;;;;5070823;28;20024;-89
2023/05/26 01:34:34;;;;;;;52.40;9.00;;;;;;;;;;5081780;28;20065;-90
2023/05/26 01:37:00;;;;;;;56.30;9.63;;;;;;;;;;5077298;28;20458;-89
2023/05/26 01:39:25;;;;;;;46.63;8.67;;;;;;;;;;5079550;28;20021;-89
2023/05/26 01:42:13;;;;;;;55.43;9.60;;;;;;;;;;5073687;28;20378;-89
2023/05/26 01:44:43;;;;;;;59.37;9.97;;;;;;;;;;5072991;28;20028;-89
2023/05/26 01:47:09;;;;;;;53.93;9.00;;;;;;;;;;5079944;28;20167;-89
2023/05/26 01:49:37;;;;;;;55.87;9.27;;;;;;;;;;5084357;28;20055;-89
2023/05/26 01:52:04;;;;;;;53.83;9.13;;;;;;;;;;5069475;28;20025;-89
2023/05/26 01:54:34;;;;;;;52.67;9.43;;;;;;;;;;5087688;28;20021;-89
2023/05/26 01:56:59;;;;;;;62.80;10.63;;;;;;;;;;5081722;28;20017;-89
2023/05/26 01:59:26;;;;;;;70.00;10.33;;;;;;;;;;5079207;28;20587;-90
2023/05/26 02:01:51;;;;;;;68.03;10.90;;;;;;;;;;5075958;28;20024;-89
2023/05/26 02:04:16;;;;;;;55.13;10.37;;;;;;;;;;5079425;28;20409;-88
2023/05/26 02:06:41;;;;;;;64.93;10.30;;;;;;;;;;5071183;28;20024;-88
2023/05/26 02:09:07;;;;;;;69.27;10.67;;;;;;;;;;5074370;28;20025;-89
2023/05/26 02:11:32;;;;;;;61.80;11.23;;;;;;;;;;5071466;28;20466;-89
2023/05/26 02:13:58;;;;;;;58.63;11.50;;;;;;;;;;5072206;28;20067;-89
2023/05/26 02:16:23;;;;;;;67.47;11.60;;;;;;;;;;5073411;28;20027;-89
2023/05/26 02:18:49;;;;;;;59.10;10.83;;;;;;;;;;5075315;28;20427;-89
2023/05/26 02:21:15;;;;;;;78.13;11.27;;;;;;;;;;5075577;28;20016;-89
2023/05/26 02:23:41;;;;;;;62.20;13.27;;;;;;;;;;5076645;28;20056;-89
2023/05/26 02:26:07;;;;;;;76.13;12.87;;;;;;;;;;5074900;28;20466;-89
2023/05/26 02:28:32;;;;;;;75.20;13.57;;;;;;;;;;5079567;28;20024;-89
2023/05/26 02:30:58;;;;;;;72.57;13.93;;;;;;;;;;5083021;28;20028;-86
2023/05/26 02:33:23;;;;;;;66.30;13.40;;;;;;;;;;5076585;28;20028;-87
2023/05/26 02:35:48;;;;;;;62.13;13.57;;;;;;;;;;5075521;28;20158;-87
2023/05/26 02:38:14;;;;;;;69.17;14.23;;;;;;;;;;5082985;28;20377;-86
2023/05/26 02:40:39;;;;;;;75.23;15.13;;;;;;;;;;5084954;28;20486;-87
2023/05/26 02:43:04;;;;;;;69.60;16.37;;;;;;;;;;5076126;28;20028;-87
2023/05/26 02:45:30;;;;;;;67.60;13.90;;;;;;;;;;5072418;28;20179;-86
2023/05/26 02:47:55;;;;;;;68.90;15.80;;;;;;;;;;5073827;28;20029;-86
2023/05/26 02:50:20;;;;;;;69.17;15.37;;;;;;;;;;5074942;28;20484;-86
2023/05/26 02:52:45;;;;;;;77.80;16.30;;;;;;;;;;5068691;28;20037;-86
2023/05/26 02:55:11;;;;;;;70.87;15.30;;;;;;;;;;5060436;28;20063;-86
2023/05/26 02:57:37;;;;;;;79.67;16.13;;;;;;;;;;5078107;28;20047;-89
2023/05/26 03:00:02;;;;;;;73.97;15.50;;;;;;;;;;5085935;28;20021;-88
2023/05/26 03:02:28;;;;;;;83.67;16.20;;;;;;;;;;5074877;28;20431;-90
2023/05/26 03:04:53;;;;;;;72.43;15.90;;;;;;;;;;5070816;28;20036;-90
2023/05/26 03:07:18;;;;;;;68.77;15.67;;;;;;;;;;5079635;28;20111;-91
2023/05/26 03:09:43;;;;;;;63.13;15.37;;;;;;;;;;5073993;28;20025;-90
2023/05/26 03:12:09;;;;;;;76.33;14.67;;;;;;;;;;5078630;28;20031;-90
2023/05/26 03:14:34;;;;;;;74.53;15.10;;;;;;;;;;5076777;28;20095;-90
2023/05/26 03:17:00;;;;;;;75.23;15.70;;;;;;;;;;5088395;28;20516;-91
2023/05/26 03:19:25;;;;;;;88.83;16.63;;;;;;;;;;5075641;28;20032;-90
2023/05/26 03:21:50;;;;;;;82.63;17.13;;;;;;;;;;5079819;28;20317;-90
2023/05/26 03:24:16;;;;;;;74.47;15.57;;;;;;;;;;5073971;28;20139;-91
2023/05/26 03:26:41;;;;;;;83.70;16.70;;;;;;;;;;5073137;28;20484;-90
2023/05/26 03:29:07;;;;;;;72.93;16.30;;;;;;;;;;5070774;28;20025;-90
2023/05/26 03:31:32;;;;;;;71.50;16.27;;;;;;;;;;5074354;28;20062;-90
2023/05/26 03:33:57;;;;;;;71.40;16.23;;;;;;;;;;5080321;28;20020;-91
2023/05/26 03:36:22;;;;;;;74.93;16.97;;;;;;;;;;5076891;28;20551;-91
2023/05/26 03:38:48;;;;;;;71.80;18.00;;;;;;;;;;5091243;28;20035;-91
2023/05/26 03:41:13;;;;;;;67.33;16.13;;;;;;;;;;5094163;28;20377;-91
2023/05/26 03:43:38;;;;;;;67.20;16.57;;;;;;;;;;5083749;28;20592;-90
2023/05/26 03:46:04;;;;;;;79.30;16.73;;;;;;;;;;5083604;28;20488;-90
2023/05/26 03:48:29;;;;;;;78.43;18.43;;;;;;;;;;5073608;28;20024;-90
2023/05/26 03:50:54;;;;;;;79.93;17.63;;;;;;;;;;5071771;28;20024;-90
2023/05/26 03:53:20;;;;;;;62.17;16.17;;;;;;;;;;5078706;28;20532;-90
2023/05/26 03:55:45;;;;;;;68.90;16.87;;;;;;;;;;5084065;28;20046;-90
2023/05/26 03:58:11;;;;;;;84.67;17.50;;;;;;;;;;5078910;28;20013;-90
2023/05/26 04:00:36;;;;;;;72.40;15.67;;;;;;;;;;5079802;28;20021;-90
2023/05/26 04:03:01;;;;;;;77.70;15.73;;;;;;;;;;5082286;28;20016;-90
2023/05/26 04:05:27;;;;;;;60.43;14.67;;;;;;;;;;5077044;28;20055;-90
2023/05/26 04:07:52;;;;;;;64.50;15.07;;;;;;;;;;5090136;28;20035;-90
2023/05/26 04:10:17;;;;;;;57.97;13.90;;;;;;;;;;5080021;28;20079;-89
2023/05/26 04:12:43;;;;;;;68.10;14.17;;;;;;;;;;5087529;28;20027;-89
2023/05/26 04:15:09;;;;;;;54.90;13.17;;;;;;;;;;5080986;28;20379;-90
2023/05/26 04:17:34;;;;;;;48.33;11.33;;;;;;;;;;5072013;28;20556;-89
2023/05/26 04:20:00;;;;;;;48.00;10.80;;;;;;;;;;5075598;28;20020;-91
2023/05/26 04:22:25;;;;;;;36.63;9.40;;;;;;;;;;5078693;28;20458;-90
2023/05/26 04:24:50;;;;;;;42.70;10.00;;;;;;;;;;5073997;28;20016;-90
2023/05/26 04:27:16;;;;;;;38.63;9.43;;;;;;;;;;5079823;28;20067;-90
2023/05/26 04:29:41;;;;;;;35.27;7.23;;;;;;;;;;5074467;28;20499;-89
2023/05/26 04:32:08;;;;;;;35.77;8.17;;;;;;;;;;5073312;28;20021;-90
2023/05/26 04:34:33;;;;;;;31.30;7.43;;;;;;;;;;5075530;28;20020;-89
2023/05/26 04:37:04;;;;;;;28.00;6.87;;;;;;;;;;5082122;28;20020;-89
2023/05/26 04:39:29;;;;;;;25.23;6.63;;;;;;;;;;5078410;28;20042;-89
2023/05/26 04:41:54;;;;;;;26.27;6.60;;;;;;;;;;5085271;28;20013;-89
2023/05/26 04:44:20;;;;;;;24.97;6.03;;;;;;;;;;5073116;28;20520;-89
2023/05/26 04:46:45;;;;;;;27.40;5.37;;;;;;;;;;5084071;28;20032;-89
2023/05/26 04:49:12;;;;;;;28.23;6.20;;;;;;;;;;5073398;28;20053;-90
2023/05/26 04:51:37;;;;;;;21.00;5.40;;;;;;;;;;5074193;28;20339;-90
2023/05/26 04:54:03;;;;;;;25.63;4.80;;;;;;;;;;5077651;28;20069;-90
2023/05/26 04:56:28;;;;;;;25.37;5.13;;;;;;;;;;5073580;28;20081;-89
2023/05/26 04:58:55;;;;;;;24.07;5.83;;;;;;;;;;5076404;28;20016;-90
2023/05/26 05:01:21;;;;;;;26.60;4.97;;;;;;;;;;5074115;28;20021;-90
2023/05/26 05:03:46;;;;;;;24.73;5.33;;;;;;;;;;5073269;28;20035;-90
2023/05/26 05:06:11;;;;;;;23.23;4.50;;;;;;;;;;5073313;28;20021;-89
2023/05/26 05:08:37;;;;;;;27.33;5.27;;;;;;;;;;5071845;28;20505;-90
2023/05/26 05:11:03;;;;;;;23.10;5.43;;;;;;;;;;5073618;28;20023;-90
2023/05/26 05:13:28;;;;;;;27.43;5.37;;;;;;;;;;5064678;28;20071;-90
2023/05/26 05:15:53;;;;;;;27.80;5.10;;;;;;;;;;5073318;28;20043;-90
2023/05/26 05:18:19;;;;;;;30.10;5.60;;;;;;;;;;5076704;28;20019;-88
2023/05/26 05:20:44;;;;;;;31.80;6.23;;;;;;;;;;5093271;28;20485;-91
2023/05/26 05:23:09;;;;;;;28.90;4.93;;;;;;;;;;5073999;28;20024;-90
2023/05/26 05:25:35;;;;;;;28.57;4.90;;;;;;;;;;5077181;28;20051;-90
2023/05/26 05:28:00;;;;;;;28.70;5.40;;;;;;;;;;5074047;28;20029;-91
2023/05/26 05:30:25;;;;;;;25.98;4.95;;;;;;;;;;5084546;28;20072;-90
2023/05/26 05:32:50;;;;;;;50.88;6.80;;;;;;;;;;5076001;28;20013;-91
2023/05/26 05:35:16;;;;;;;58.97;8.75;;;;;;;;;;5092042;28;20102;-91
2023/05/26 05:37:41;;;;;;;22.02;4.72;;;;;;;;;;5092806;28;20016;-91
2023/05/26 05:40:07;;;;;;;29.42;5.13;;;;;;;;;;5092883;28;20008;-90
2023/05/26 05:42:32;;;;;;;22.67;4.68;;;;;;;;;;5076134;28;20027;-91
2023/05/26 05:44:58;;;;;;;25.30;5.50;;;;;;;;;;5073478;28;20091;-91
2023/05/26 05:47:23;;;;;;;24.05;4.78;;;;;;;;;;5078417;28;20070;-90
2023/05/26 05:49:48;;;;;;;22.00;4.40;;;;;;;;;;5085823;28;20090;-91
2023/05/26 05:52:14;;;;;;;23.20;5.40;;;;;;;;;;5086800;28;20344;-91
2023/05/26 05:54:39;;;;;;;23.42;5.13;;;;;;;;;;5089867;28;20047;-91
2023/05/26 05:57:05;;;;;;;19.23;5.13;;;;;;;;;;5097119;28;20046;-91
2023/05/26 05:59:30;;;;;;;22.83;4.68;;;;;;;;;;5085264;28;20048;-91
2023/05/26 06:01:55;;;;;;;20.55;4.35;;;;;;;;;;5083632;28;20470;-90
2023/05/26 06:04:21;;;;;;;18.20;4.07;;;;;;;;;;5077334;28;20049;-90
2023/05/26 06:06:46;;;;;;;23.73;4.72;;;;;;;;;;5093311;28;20020;-91
2023/05/26 06:09:11;;;;;;;18.92;4.45;;;;;;;;;;5076847;28;20039;-91
2023/05/26 06:11:37;;;;;;;20.40;4.80;;;;;;;;;;5077481;28;20020;-91
2023/05/26 06:14:02;;;;;;;25.98;4.93;;;;;;;;;;5075816;28;20458;-91
2023/05/26 06:16:27;;;;;;;26.80;4.68;;;;;;;;;;5085688;28;20052;-90
2023/05/26 06:18:52;;;;;;;28.70;4.30;;;;;;;;;;5092227;28;20021;-90
2023/05/26 06:21:18;;;;;;;22.90;4.32;;;;;;;;;;5077201;28;20017;-90
2023/05/26 06:23:43;;;;;;;24.30;4.95;;;;;;;;;;5077197;28;20099;-91
2023/05/26 06:26:08;;;;;;;18.60;4.07;;;;;;;;;;5076953;28;20048;-90
2023/05/26 06:28:34;;;;;;;22.50;5.30;;;;;;;;;;5076558;28;20039;-91
2023/05/26 06:30:59;;;;;;;22.92;4.85;;;;;;;;;;5078385;28;20029;-90
2023/05/26 06:33:24;;;;;;;13.63;3.58;;;;;;;;;;5094362;28;20020;-90
2023/05/26 06:35:50;;;;;;;22.50;4.15;;;;;;;;;;5092994;28;20096;-90
2023/05/26 06:38:15;;;;;;;21.13;4.80;;;;;;;;;;5075965;28;20055;-90
2023/05/26 06:40:40;;;;;;;22.30;4.32;;;;;;;;;;5076117;28;20169;-90
2023/05/26 06:43:06;;;;;;;23.70;4.70;;;;;;;;;;5080719;28;20016;-90
2023/05/26 06:45:31;;;;;;;26.45;4.75;;;;;;;;;;5076321;28;20025;-89
2023/05/26 06:47:56;;;;;;;25.20;4.53;;;;;;;;;;5076190;28;20062;-90
2023/05/26 06:50:21;;;;;;;25.88;4.20;;;;;;;;;;5075269;28;20020;-90
2023/05/26 06:52:47;;;;;;;28.85;4.80;;;;;;;;;;5073687;28;20013;-91
2023/05/26 06:55:12;;;;;;;21.98;4.00;;;;;;;;;;5076572;28;20020;-91
2023/05/26 06:57:37;;;;;;;21.55;4.28;;;;;;;;;;5076714;28;20027;-91
2023/05/26 07:00:03;;;;;;;18.13;3.88;;;;;;;;;;5076483;28;20067;-90
2023/05/26 07:02:28;;;;;;;19.70;4.18;;;;;;;;;;5082431;28;20032;-91
2023/05/26 07:04:53;;;;;;;19.85;3.80;;;;;;;;;;5075265;28;20512;-90
2023/05/26 07:07:19;;;;;;;14.98;2.95;;;;;;;;;;5078002;28;20103;-91
2023/05/26 07:09:45;;;;;;;21.92;3.60;;;;;;;;;;5085578;28;20382;-89
2023/05/26 07:12:10;;;;;;;21.25;3.65;;;;;;;;;;5074447;28;20539;-90
2023/05/26 07:14:36;;;;;;;28.15;4.72;;;;;;;;;;5086741;28;20529;-90
2023/05/26 07:17:01;;;;;;;22.80;3.70;;;;;;;;;;5077057;28;20012;-90
2023/05/26 07:19:26;;;;;;;21.02;4.13;;;;;;;;;;5076187;28;20031;-91
2023/05/26 07:21:51;;;;;;;22.38;4.25;;;;;;;;;;5079754;28;20024;-90
2023/05/26 07:24:17;;;;;;;22.30;4.28;;;;;;;;;;5074838;28;20427;-90
2023/05/26 07:26:42;;;;;;;22.38;4.68;;;;;;;;;;5083108;28;20031;-91
2023/05/26 07:29:07;;;;;;;19.80;3.78;;;;;;;;;;5072677;28;20021;-89
2023/05/26 07:31:33;;;;;;;21.23;3.88;;;;;;;;;;5088090;28;20016;-91
2023/05/26 07:33:59;;;;;;;18.92;3.72;;;;;;;;;;5085218;28;20023;-90
2023/05/26 07:36:25;;;;;;;23.55;4.30;;;;;;;;;;5075400;28;20500;-91
2023/05/26 07:38:50;;;;;;;22.42;3.45;;;;;;;;;;5075613;28;20116;-90
2023/05/26 07:41:15;;;;;;;20.88;3.72;;;;;;;;;;5074452;28;20470;-90
2023/05/26 07:43:41;;;;;;;23.70;3.97;;;;;;;;;;5074338;28;20020;-91
2023/05/26 07:46:06;;;;;;;24.02;3.95;;;;;;;;;;5072606;28;20020;-90
2023/05/26 07:48:31;;;;;;;16.30;3.60;;;;;;;;;;5082694;28;20034;-89
2023/05/26 07:50:57;;;;;;;16.95;3.90;;;;;;;;;;5093732;28;20023;-90
2023/05/26 07:53:22;;;;;;;20.20;4.30;;;;;;;;;;5074895;28;20012;-90
2023/05/26 07:55:47;;;;;;;17.65;3.50;;;;;;;;;;5074540;28;20017;-88
2023/05/26 07:58:13;;;;;;;19.75;3.58;;;;;;;;;;5078641;28;20154;-90
2023/05/26 08:00:38;;;;;;;20.48;3.75;;;;;;;;;;5092294;28;20043;-90
2023/05/26 08:03:04;;;;;;;17.10;3.78;;;;;;;;;;5075230;28;20017;-90
2023/05/26 08:05:30;;;;;;;14.73;3.33;;;;;;;;;;5072611;28;20072;-91
2023/05/26 08:07:56;;;;;;;16.17;3.58;;;;;;;;;;5078725;28;20100;-91
2023/05/26 08:10:21;;;;;;;16.38;3.20;;;;;;;;;;5091708;28;20039;-91
2023/05/26 08:12:47;;;;;;;17.48;3.50;;;;;;;;;;5092738;28;20016;-91
2023/05/26 08:15:14;;;;;;;16.08;4.03;;;;;;;;;;5088650;28;20012;-91
2023/05/26 08:17:39;;;;;;;17.08;3.47;;;;;;;;;;5081894;28;20623;-91
2023/05/26 08:20:05;;;;;;;18.05;4.20;;;;;;;;;;5076302;28;20027;-91
2023/05/26 08:22:30;;;;;;;15.85;3.38;;;;;;;;;;5075754;28;20020;-91
2023/05/26 08:24:57;;;;;;;16.80;3.70;;;;;;;;;;5077077;28;20025;-91
2023/05/26 08:27:23;;;;;;;15.38;3.80;;;;;;;;;;5074090;28;20028;-91
2023/05/26 08:29:48;;;;;;;16.77;3.78;;;;;;;;;;5084685;28;20378;-90
2023/05/26 08:32:13;;;;;;;17.52;3.80;;;;;;;;;;5084616;28;20020;-91
2023/05/26 08:34:39;;;;;;;18.33;3.75;;;;;;;;;;5074419;28;20031;-91
2023/05/26 08:37:04;;;;;;;18.85;3.80;;;;;;;;;;5074020;28;20051;-91
2023/05/26 08:39:29;;;;;;;19.30;3.95;;;;;;;;;;5074289;28;20017;-91
2023/05/26 08:41:55;;;;;;;18.40;4.22;;;;;;;;;;5076695;28;20374;-91
2023/05/26 08:44:21;;;;;;;19.13;4.13;;;;;;;;;;5092868;28;20107;-91
2023/05/26 08:46:47;;;;;;;18.83;4.10;;;;;;;;;;5090852;28;20486;-91
2023/05/26 08:49:14;;;;;;;15.45;3.70;;;;;;;;;;5084778;28;20024;-90
2023/05/26 08:51:42;;;;;;;18.08;3.80;;;;;;;;;;5071479;28;20020;-91
2023/05/26 08:54:07;;;;;;;18.90;4.10;;;;;;;;;;5079397;28;20049;-92
2023/05/26 08:56:33;;;;;;;14.27;3.45;;;;;;;;;;5092734;28;20012;-89
2023/05/26 08:59:00;;;;;;;18.42;4.25;;;;;;;;;;5069089;28;20416;-91
2023/05/26 09:01:26;;;;;;;18.13;3.60;;;;;;;;;;5072890;28;20021;-91
2023/05/26 09:03:51;;;;;;;16.23;4.20;;;;;;;;;;5085614;28;20093;-92
2023/05/26 09:06:16;;;;;;;14.93;3.58;;;;;;;;;;5082431;28;20023;-93
2023/05/26 09:08:41;;;;;;;19.27;3.55;;;;;;;;;;5083117;28;20362;-91
2023/05/26 09:11:22;;;;;;;15.45;3.53;;;;;;;;;;5092124;28;20023;-91
2023/05/26 09:13:52;;;;;;;17.35;3.45;;;;;;;;;;5092292;28;20484;-91
2023/05/26 09:16:20;;;;;;;16.95;4.00;;;;;;;;;;5079913;28;20017;-92
2023/05/26 09:18:45;;;;;;;14.25;3.05;;;;;;;;;;5072776;28;20028;-92
2023/05/26 09:21:11;;;;;;;13.13;3.83;;;;;;;;;;5084259;28;20026;-92
2023/05/26 09:23:36;;;;;;;13.52;3.05;;;;;;;;;;5083099;28;20020;-91
2023/05/26 09:26:05;;;;;;;13.25;3.35;;;;;;;;;;5094699;28;20031;-91
2023/05/26 09:28:30;;;;;;;15.07;3.47;;;;;;;;;;5097140;28;20016;-90
2023/05/26 09:30:55;;;;;;;16.52;3.70;;;;;;;;;;5089600;28;20024;-91
2023/05/26 09:33:21;;;;;;;17.38;4.00;;;;;;;;;;5087964;28;20024;-92
2023/05/26 09:35:47;;;;;;;14.10;3.58;;;;;;;;;;5089812;28;20008;-91
2023/05/26 09:38:13;;;;;;;14.70;3.75;;;;;;;;;;5091137;28;20107;-91
2023/05/26 09:40:43;;;;;;;15.80;3.67;;;;;;;;;;5077431;28;20115;-91
2023/05/26 09:43:08;;;;;;;17.10;3.55;;;;;;;;;;5073003;28;20048;-92
2023/05/26 09:45:37;;;;;;;13.75;3.22;;;;;;;;;;5077696;28;20040;-91
2023/05/26 09:48:03;;;;;;;17.58;3.05;;;;;;;;;;5092248;28;20062;-90
2023/05/26 09:50:32;;;;;;;13.63;3.75;;;;;;;;;;5074150;28;20028;-91
2023/05/26 09:52:59;;;;;;;12.48;3.00;;;;;;;;;;5071627;28;20086;-91
2023/05/26 09:55:24;;;;;;;12.75;3.10;;;;;;;;;;5080912;28;20134;-91
2023/05/26 09:57:51;;;;;;;13.25;2.90;;;;;;;;;;5078656;28;20508;-91
2023/05/26 10:00:18;;;;;;;11.23;3.20;;;;;;;;;;5090595;28;20377;-91
2023/05/26 10:02:45;;;;;;;11.25;2.70;;;;;;;;;;5075642;28;20009;-91
2023/05/26 10:05:10;;;;;;;11.23;2.95;;;;;;;;;;5072626;28;20529;-91
2023/05/26 10:07:36;;;;;;;12.95;3.17;;;;;;;;;;5080489;28;20016;-92
2023/05/26 10:10:02;;;;;;;11.02;2.90;;;;;;;;;;5073074;28;20025;-91
2023/05/26 10:12:31;;;;;;;11.73;2.78;;;;;;;;;;5076963;28;20012;-91
2023/05/26 10:14:57;;;;;;;16.48;3.67;;;;;;;;;;5076224;28;20096;-91
2023/05/26 10:17:22;;;;;;;11.70;3.00;;;;;;;;;;5072837;28;20496;-91
2023/05/26 10:19:48;;;;;;;14.63;3.40;;;;;;;;;;5077707;28;20012;-92
2023/05/26 10:22:18;;;;;;;15.15;3.85;;;;;;;;;;5092009;28;20023;-92
2023/05/26 10:24:46;;;;;;;12.43;3.00;;;;;;;;;;5085705;28;20028;-92
2023/05/26 10:27:14;;;;;;;14.18;3.50;;;;;;;;;;5073829;28;20017;-90
2023/05/26 10:29:46;;;;;;;13.75;3.15;;;;;;;;;;5082651;28;20020;-91
2023/05/26 10:32:29;;;;;;;13.50;2.95;;;;;;;;;;5075721;28;20020;-91
2023/05/26 10:34:55;;;;;;;11.07;2.90;;;;;;;;;;5082716;28;20411;-91
2023/05/26 10:37:21;;;;;;;13.00;2.92;;;;;;;;;;5090764;28;20047;-91
2023/05/26 10:39:46;;;;;;;13.85;3.13;;;;;;;;;;5084398;28;20012;-91
2023/05/26 10:42:18;;;;;;;12.10;2.80;;;;;;;;;;5087327;28;20465;-91
2023/05/26 10:44:44;;;;;;;15.95;3.33;;;;;;;;;;5081818;28;20374;-91
2023/05/26 10:47:13;;;;;;;13.20;2.85;;;;;;;;;;5081362;28;20106;-91
2023/05/26 10:49:39;;;;;;;14.18;3.10;;;;;;;;;;5073888;28;20020;-92
2023/05/26 10:52:14;;;;;;;11.80;3.30;;;;;;;;;;5087735;28;20009;-91
2023/05/26 10:54:40;;;;;;;14.27;3.50;;;;;;;;;;5091589;28;20016;-90
2023/05/26 10:57:06;;;;;;;13.45;2.90;;;;;;;;;;5095224;28;20488;-92
2023/05/26 10:59:36;;;;;;;14.45;2.83;;;;;;;;;;5094468;28;20028;-91
2023/05/26 11:02:05;;;;;;;10.37;2.70;;;;;;;;;;5073048;28;20424;-91
2023/05/26 11:04:44;;;;;;;10.88;2.90;;;;;;;;;;5089129;28;20052;-92
2023/05/26 11:07:35;;;;;;;14.07;3.03;;;;;;;;;;5070818;28;20101;-92
2023/05/26 11:10:05;;;;;;;13.02;2.92;;;;;;;;;;5070832;28;20040;-91
2023/05/26 11:12:34;;;;;;;13.35;2.80;;;;;;;;;;5075854;28;20020;-93
2023/05/26 11:15:19;;;;;;;12.00;2.97;;;;;;;;;;5074453;28;20034;-91
2023/05/26 11:17:45;;;;;;;14.18;3.20;;;;;;;;;;5074797;28;20063;-91
2023/05/26 11:20:15;;;;;;;15.60;3.33;;;;;;;;;;5078832;28;20020;-92
2023/05/26 11:22:42;;;;;;;12.77;2.60;;;;;;;;;;5076224;28;20470;-91
2023/05/26 11:25:08;;;;;;;13.00;3.35;;;;;;;;;;5093644;28;20529;-93
2023/05/26 11:27:33;;;;;;;11.30;2.90;;;;;;;;;;5084217;28;20025;-90
2023/05/26 11:29:59;;;;;;;17.05;2.90;;;;;;;;;;5076190;28;20009;-92
2023/05/26 11:32:25;;;;;;;15.40;2.88;;;;;;;;;;5075699;28;20076;-92
2023/05/26 11:34:50;;;;;;;11.82;2.83;;;;;;;;;;5088467;28;20462;-91
2023/05/26 11:37:15;;;;;;;12.57;3.00;;;;;;;;;;5093205;28;20012;-93
2023/05/26 11:39:41;;;;;;;11.90;2.75;;;;;;;;;;5086442;28;20770;-91
2023/05/26 11:42:07;;;;;;;14.18;3.22;;;;;;;;;;5075637;28;20411;-91
2023/05/26 11:44:33;;;;;;;11.68;2.85;;;;;;;;;;5084484;28;20114;-91
2023/05/26 11:46:58;;;;;;;12.68;2.95;;;;;;;;;;5094539;28;20036;-93
2023/05/26 11:49:23;;;;;;;15.57;3.20;;;;;;;;;;5085964;28;20381;-91
2023/05/26 11:51:53;;;;;;;13.25;3.58;;;;;;;;;;5093684;28;20012;-93
2023/05/26 11:54:19;;;;;;;11.18;3.30;;;;;;;;;;5091485;28;20024;-90
2023/05/26 11:56:45;;;;;;;14.38;3.20;;;;;;;;;;5077120;28;20425;-91
2023/05/26 11:59:15;;;;;;;14.00;3.42;;;;;;;;;;5074761;28;20020;-92
2023/05/26 12:01:40;;;;;;;11.85;3.08;;;;;;;;;;5090521;28;20405;-91
2023/05/26 12:04:06;;;;;;;12.48;2.80;;;;;;;;;;5074217;28;20045;-91
2023/05/26 12:06:32;;;;;;;16.90;3.10;;;;;;;;;;5094238;28;20107;-92
2023/05/26 12:09:02;;;;;;;14.77;3.22;;;;;;;;;;5092407;28;20020;-91
2023/05/26 12:11:34;;;;;;;11.98;2.90;;;;;;;;;;5091906;28;20017;-92
2023/05/26 12:14:26;;;;;;;12.88;3.17;;;;;;;;;;5083227;28;20537;-92
2023/05/26 12:16:52;;;;;;;9.10;2.83;;;;;;;;;;5073804;28;20123;-92
2023/05/26 12:19:18;;;;;;;13.10;3.42;;;;;;;;;;5083265;28;20058;-93
2023/05/26 12:21:47;;;;;;;14.13;3.10;;;;;;;;;;5085146;28;20016;-91
2023/05/26 12:24:13;;;;;;;12.75;2.90;;;;;;;;;;5074775;28;20020;-91
2023/05/26 12:26:39;;;;;;;20.98;3.45;;;;;;;;;;5089903;28;20474;-91
2023/05/26 12:29:09;;;;;;;13.32;3.33;;;;;;;;;;5093640;28;20031;-92
2023/05/26 12:31:38;;;;;;;14.30;3.42;;;;;;;;;;5074943;28;20012;-91
2023/05/26 12:34:04;;;;;;;9.88;2.80;;;;;;;;;;5094928;28;20064;-92
2023/05/26 12:36:29;;;;;;;10.95;3.20;;;;;;;;;;5095892;28;20044;-93
2023/05/26 12:38:54;;;;;;;11.35;3.08;;;;;;;;;;5097178;28;20028;-92
2023/05/26 12:41:20;;;;;;;9.65;2.88;;;;;;;;;;5096172;28;20028;-92
2023/05/26 12:43:45;;;;;;;11.15;2.83;;;;;;;;;;5102891;28;20115;-90
2023/05/26 12:46:11;;;;;;;10.98;2.63;;;;;;;;;;5088908;28;20048;-93
2023/05/26 12:48:36;;;;;;;13.15;3.10;;;;;;;;;;5062347;28;20486;-93
2023/05/26 12:51:02;;;;;;;9.50;2.65;;;;;;;;;;5069756;28;20024;-92
2023/05/26 12:53:27;;;;;;;11.07;2.67;;;;;;;;;;5071463;28;20345;-92
2023/05/26 12:55:52;;;;;;;11.35;3.10;;;;;;;;;;5068033;28;20115;-92
2023/05/26 12:58:18;;;;;;;10.90;3.47;;;;;;;;;;5074830;28;20020;-91
2023/05/26 13:00:43;;;;;;;12.93;2.85;;;;;;;;;;5070547;28;20021;-93
2023/05/26 13:03:09;;;;;;;14.13;3.05;;;;;;;;;;5071643;28;20024;-92
2023/05/26 13:05:34;;;;;;;12.40;3.42;;;;;;;;;;5070428;28;20468;-92
2023/05/26 13:07:59;;;;;;;16.45;3.65;;;;;;;;;;5071285;28;20024;-92
2023/05/26 13:10:25;;;;;;;17.05;2.95;;;;;;;;;;5074003;28;20042;-92
2023/05/26 13:12:50;;;;;;;14.82;3.70;;;;;;;;;;5073622;28;20009;-92
2023/05/26 13:15:16;;;;;;;12.52;3.58;;;;;;;;;;5073791;28;20025;-93
2023/05/26 13:17:41;;;;;;;15.40;3.55;;;;;;;;;;5074895;28;20095;-93
2023/05/26 13:20:07;;;;;;;13.63;2.88;;;;;;;;;;5073496;28;20546;-93
2023/05/26 13:22:33;;;;;;;11.25;3.20;;;;;;;;;;5072793;28;20048;-92
2023/05/26 13:24:58;;;;;;;12.52;3.60;;;;;;;;;;5069414;28;20032;-92
2023/05/26 13:27:23;;;;;;;11.95;3.30;;;;;;;;;;5071573;28;20032;-91
2023/05/26 13:29:50;;;;;;;16.30;3.42;;;;;;;;;;5070258;28;20044;-92
2023/05/26 13:32:15;;;;;;;16.13;3.80;;;;;;;;;;5071748;28;20107;-92
2023/05/26 13:34:41;;;;;;;12.30;3.00;;;;;;;;;;5073665;28;20016;-90
2023/05/26 13:37:06;;;;;;;17.98;3.40;;;;;;;;;;5072679;28;20031;-92
2023/05/26 13:39:32;;;;;;;16.08;3.30;;;;;;;;;;5082905;28;20028;-92
2023/05/26 13:41:57;;;;;;;13.57;3.25;;;;;;;;;;5083851;28;20036;-92
2023/05/26 13:44:22;;;;;;;12.32;3.38;;;;;;;;;;5072337;28;20028;-94
2023/05/26 13:46:48;;;;;;;16.25;3.70;;;;;;;;;;5085867;28;20028;-93
2023/05/26 13:49:13;;;;;;;12.00;3.40;;;;;;;;;;5082236;28;20029;-92
2023/05/26 13:51:38;;;;;;;13.57;3.97;;;;;;;;;;5073450;28;20016;-91
2023/05/26 13:54:03;;;;;;;14.38;3.88;;;;;;;;;;5072684;28;20015;-92
2023/05/26 13:56:30;;;;;;;15.35;3.85;;;;;;;;;;5074589;28;20029;-92
2023/05/26 13:58:55;;;;;;;16.88;4.35;;;;;;;;;;5074124;28;20029;-92
2023/05/26 14:01:22;;;;;;;16.23;3.22;;;;;;;;;;5072414;28;20028;-93
2023/05/26 14:03:47;;;;;;;13.27;3.38;;;;;;;;;;5070870;28;20051;-94
2023/05/26 14:06:13;;;;;;;12.57;3.30;;;;;;;;;;5074671;28;20055;-93
2023/05/26 14:08:38;;;;;;;13.02;3.67;;;;;;;;;;5077192;28;20036;-93
2023/05/26 14:11:03;;;;;;;13.85;3.83;;;;;;;;;;5072024;28;20017;-92
2023/05/26 14:13:28;;;;;;;11.55;3.25;;;;;;;;;;5084698;28;20032;-93
2023/05/26 14:15:55;;;;;;;11.48;3.17;;;;;;;;;;5080338;28;20038;-93
2023/05/26 14:18:20;;;;;;;14.13;3.85;;;;;;;;;;5083339;28;20025;-93
2023/05/26 14:20:46;;;;;;;13.70;3.42;;;;;;;;;;5072039;28;20017;-92
2023/05/26 14:23:11;;;;;;;13.60;3.47;;;;;;;;;;5073694;28;20043;-93